createdAt,value
2016-08-30T00:00:43.412Z,0
2016-08-30T00:01:44.545Z,0
2016-08-30T00:02:45.609Z,0
2016-08-30T00:03:49.162Z,0
2016-08-30T00:04:49.797Z,0
2016-08-30T00:05:50.482Z,0
2016-08-30T00:06:51.124Z,0
2016-08-30T00:07:51.745Z,0
2016-08-30T00:08:52.369Z,0
2016-08-30T00:09:52.990Z,0
2016-08-30T00:10:53.607Z,0
2016-08-30T00:11:54.226Z,0
2016-08-30T00:12:54.851Z,0
2016-08-30T00:13:55.472Z,0
2016-08-30T00:14:56.094Z,0
2016-08-30T00:15:56.712Z,0
2016-08-30T00:16:57.333Z,0
2016-08-30T00:17:57.956Z,0
2016-08-30T00:18:58.590Z,0
2016-08-30T00:19:59.229Z,0
2016-08-30T00:20:59.854Z,0
2016-08-30T00:22:00.474Z,0
2016-08-30T00:23:01.106Z,0
2016-08-30T00:24:01.726Z,0
2016-08-30T00:25:02.342Z,0
2016-08-30T00:26:02.957Z,0
2016-08-30T00:27:03.626Z,0
2016-08-30T00:28:04.263Z,0
2016-08-30T00:29:04.892Z,0
2016-08-30T00:30:06.113Z,0
2016-08-30T00:31:06.739Z,0
2016-08-30T00:32:07.361Z,0
2016-08-30T00:33:07.995Z,0
2016-08-30T00:34:08.630Z,0
2016-08-30T00:35:09.257Z,0
2016-08-30T00:36:09.886Z,0
2016-08-30T00:37:10.501Z,0
2016-08-30T00:38:11.121Z,0
2016-08-30T00:39:11.735Z,0
2016-08-30T00:40:12.349Z,0
2016-08-30T00:41:12.983Z,0
2016-08-30T00:42:13.599Z,0
2016-08-30T00:43:14.221Z,0
2016-08-30T00:44:14.842Z,0
2016-08-30T00:45:15.464Z,0
2016-08-30T00:46:16.082Z,0
2016-08-30T00:47:16.704Z,0
2016-08-30T00:48:17.327Z,0
2016-08-30T00:49:17.950Z,0
2016-08-30T00:50:19.024Z,0
2016-08-30T00:51:19.639Z,0
2016-08-30T00:52:20.258Z,0
2016-08-30T00:53:20.890Z,0
2016-08-30T00:54:21.515Z,0
2016-08-30T00:55:22.145Z,0
2016-08-30T00:56:23.752Z,0
2016-08-30T00:57:24.373Z,0
2016-08-30T00:58:25.013Z,0
2016-08-30T00:59:25.632Z,0
2016-08-30T01:00:26.252Z,0
2016-08-30T01:01:26.876Z,0
2016-08-30T01:02:27.511Z,0
2016-08-30T01:03:28.138Z,0
2016-08-30T01:04:28.771Z,0
2016-08-30T01:05:29.407Z,0
2016-08-30T01:06:30.030Z,0
2016-08-30T01:07:30.648Z,0
2016-08-30T01:08:31.278Z,0
2016-08-30T01:09:31.926Z,0
2016-08-30T01:10:32.538Z,0
2016-08-30T01:11:33.160Z,0
2016-08-30T01:12:33.803Z,0
2016-08-30T01:13:34.429Z,0
2016-08-30T01:14:35.048Z,0
2016-08-30T01:15:35.670Z,0
2016-08-30T01:16:36.295Z,0
2016-08-30T01:17:36.907Z,0
2016-08-30T01:18:37.528Z,0
2016-08-30T01:19:38.156Z,0
2016-08-30T01:20:38.772Z,0
2016-08-30T01:21:39.392Z,0
2016-08-30T01:22:40.014Z,0
2016-08-30T01:23:40.640Z,0
2016-08-30T01:24:41.263Z,0
2016-08-30T01:25:41.882Z,0
2016-08-30T01:26:42.511Z,0
2016-08-30T01:27:43.152Z,0
2016-08-30T01:28:43.779Z,0
2016-08-30T01:29:44.401Z,0
2016-08-30T01:30:45.027Z,0
2016-08-30T01:31:45.652Z,0
2016-08-30T01:32:46.275Z,0
2016-08-30T01:33:46.890Z,0
2016-08-30T01:34:47.511Z,0
2016-08-30T01:35:48.131Z,0
2016-08-30T01:36:48.747Z,0
2016-08-30T01:37:49.370Z,0
2016-08-30T01:38:50.003Z,0
2016-08-30T01:39:50.625Z,0
2016-08-30T01:40:51.248Z,0
2016-08-30T01:41:51.863Z,0
2016-08-30T01:42:52.483Z,0
2016-08-30T01:43:53.103Z,0
2016-08-30T01:44:53.726Z,0
2016-08-30T01:45:54.350Z,0
2016-08-30T01:46:54.963Z,0
2016-08-30T01:47:55.585Z,0
2016-08-30T01:48:56.205Z,0
2016-08-30T01:49:56.829Z,0
2016-08-30T01:50:57.451Z,0
2016-08-30T01:51:58.090Z,0
2016-08-30T01:52:58.715Z,0
2016-08-30T01:53:59.336Z,0
2016-08-30T01:54:59.951Z,0
2016-08-30T01:56:00.579Z,0
2016-08-30T01:57:01.191Z,0
2016-08-30T01:58:01.825Z,0
2016-08-30T01:59:02.439Z,0
2016-08-30T02:00:03.054Z,0
2016-08-30T02:01:03.677Z,0
2016-08-30T02:02:04.304Z,0
2016-08-30T02:03:04.940Z,0
2016-08-30T02:04:05.561Z,0
2016-08-30T02:05:06.182Z,0
2016-08-30T02:06:06.806Z,0
2016-08-30T02:07:07.423Z,0
2016-08-30T02:08:08.045Z,0
2016-08-30T02:09:08.666Z,0
2016-08-30T02:10:09.287Z,0
2016-08-30T02:11:09.914Z,0
2016-08-30T02:12:10.532Z,0
2016-08-30T02:13:11.144Z,0
2016-08-30T02:14:11.761Z,0
2016-08-30T02:15:12.385Z,0
2016-08-30T02:16:13.002Z,0
2016-08-30T02:17:13.629Z,0
2016-08-30T02:18:14.263Z,0
2016-08-30T02:19:14.898Z,0
2016-08-30T02:20:15.534Z,0
2016-08-30T02:21:16.160Z,0
2016-08-30T02:22:16.786Z,0
2016-08-30T02:23:17.412Z,0
2016-08-30T02:24:18.027Z,0
2016-08-30T02:25:18.653Z,0
2016-08-30T02:26:19.274Z,0
2016-08-30T02:27:19.901Z,0
2016-08-30T02:28:20.536Z,0
2016-08-30T02:29:21.165Z,0
2016-08-30T02:30:21.788Z,0
2016-08-30T02:31:22.408Z,0
2016-08-30T02:32:23.028Z,0
2016-08-30T02:33:23.648Z,0
2016-08-30T02:34:24.275Z,0
2016-08-30T02:35:24.888Z,0
2016-08-30T02:36:25.513Z,0
2016-08-30T02:37:26.133Z,0
2016-08-30T02:38:26.752Z,0
2016-08-30T02:39:27.385Z,0
2016-08-30T02:40:28.017Z,0
2016-08-30T02:41:28.638Z,0
2016-08-30T02:42:29.253Z,0
2016-08-30T02:43:29.877Z,0
2016-08-30T02:44:30.490Z,0
2016-08-30T02:45:31.112Z,0
2016-08-30T02:46:31.731Z,0
2016-08-30T02:47:32.351Z,0
2016-08-30T02:48:32.973Z,0
2016-08-30T02:49:33.602Z,0
2016-08-30T02:50:34.215Z,0
2016-08-30T02:51:34.834Z,0
2016-08-30T02:52:35.457Z,0
2016-08-30T02:53:36.070Z,0
2016-08-30T02:54:36.693Z,0
2016-08-30T02:55:37.359Z,0
2016-08-30T02:56:37.976Z,0
2016-08-30T02:57:38.613Z,0
2016-08-30T02:58:39.249Z,0
2016-08-30T02:59:39.865Z,0
2016-08-30T03:00:40.496Z,0
2016-08-30T03:01:41.122Z,0
2016-08-30T03:02:41.748Z,0
2016-08-30T03:03:42.364Z,0
2016-08-30T03:04:42.990Z,0
2016-08-30T03:05:43.616Z,0
2016-08-30T03:06:44.240Z,0
2016-08-30T03:07:44.868Z,0
2016-08-30T03:08:45.487Z,0
2016-08-30T03:09:46.113Z,0
2016-08-30T03:10:46.733Z,0
2016-08-30T03:11:47.356Z,0
2016-08-30T03:12:47.973Z,0
2016-08-30T03:13:48.594Z,0
2016-08-30T03:14:49.209Z,0
2016-08-30T03:15:49.836Z,0
2016-08-30T03:16:50.454Z,0
2016-08-30T03:17:51.124Z,0
2016-08-30T03:18:51.739Z,0
2016-08-30T03:19:52.365Z,0
2016-08-30T03:20:52.992Z,0
2016-08-30T03:21:53.611Z,0
2016-08-30T03:22:54.232Z,0
2016-08-30T03:23:54.855Z,0
2016-08-30T03:24:55.479Z,0
2016-08-30T03:25:56.102Z,0
2016-08-30T03:26:56.717Z,0
2016-08-30T03:27:57.340Z,0
2016-08-30T03:28:57.972Z,0
2016-08-30T03:29:58.605Z,0
2016-08-30T03:30:59.237Z,0
2016-08-30T03:31:59.857Z,0
2016-08-30T03:33:00.485Z,0
2016-08-30T03:34:01.113Z,0
2016-08-30T03:35:01.745Z,0
2016-08-30T03:36:02.368Z,0
2016-08-30T03:37:02.993Z,0
2016-08-30T03:38:03.605Z,0
2016-08-30T03:39:04.224Z,0
2016-08-30T03:40:04.862Z,0
2016-08-30T03:41:05.486Z,0
2016-08-30T03:42:06.112Z,0
2016-08-30T03:43:06.745Z,0
2016-08-30T03:44:07.366Z,0
2016-08-30T03:45:07.990Z,0
2016-08-30T03:46:08.648Z,0
2016-08-30T03:47:09.263Z,0
2016-08-30T03:48:09.907Z,0
2016-08-30T03:49:10.565Z,0
2016-08-30T03:50:11.201Z,0
2016-08-30T03:51:11.820Z,0
2016-08-30T03:52:12.435Z,0
2016-08-30T03:53:13.078Z,0
2016-08-30T03:54:13.700Z,0
2016-08-30T03:55:14.330Z,0
2016-08-30T03:56:14.955Z,0
2016-08-30T03:57:15.581Z,4
2016-08-30T03:58:16.217Z,0
2016-08-30T03:59:16.842Z,0
2016-08-30T04:00:18.005Z,4
2016-08-30T04:01:18.630Z,4
2016-08-30T04:02:19.259Z,4
2016-08-30T04:03:19.869Z,4
2016-08-30T04:04:20.511Z,4
2016-08-30T04:05:21.131Z,4
2016-08-30T04:06:21.750Z,4
2016-08-30T04:07:22.371Z,8
2016-08-30T04:08:22.993Z,8
2016-08-30T04:09:23.614Z,8
2016-08-30T04:10:24.234Z,12
2016-08-30T04:11:24.886Z,12
2016-08-30T04:12:25.512Z,16
2016-08-30T04:13:26.148Z,20
2016-08-30T04:14:26.775Z,20
2016-08-30T04:15:27.401Z,24
2016-08-30T04:16:28.011Z,24
2016-08-30T04:17:28.634Z,32
2016-08-30T04:18:29.251Z,32
2016-08-30T04:19:29.873Z,32
2016-08-30T04:20:30.495Z,36
2016-08-30T04:21:31.113Z,44
2016-08-30T04:22:31.738Z,48
2016-08-30T04:23:32.359Z,52
2016-08-30T04:24:32.979Z,56
2016-08-30T04:25:33.604Z,56
2016-08-30T04:26:34.236Z,64
2016-08-30T04:27:34.868Z,68
2016-08-30T04:28:35.514Z,72
2016-08-30T04:29:36.129Z,80
2016-08-30T04:30:36.791Z,84
2016-08-30T04:31:37.427Z,92
2016-08-30T04:32:38.055Z,96
2016-08-30T04:33:38.676Z,100
2016-08-30T04:34:39.292Z,108
2016-08-30T04:35:39.916Z,116
2016-08-30T04:36:40.547Z,124
2016-08-30T04:37:41.182Z,132
2016-08-30T04:38:41.810Z,136
2016-08-30T04:39:42.452Z,144
2016-08-30T04:40:43.086Z,156
2016-08-30T04:41:43.701Z,164
2016-08-30T04:42:44.338Z,176
2016-08-30T04:43:44.966Z,184
2016-08-30T04:44:45.594Z,196
2016-08-30T04:45:46.221Z,208
2016-08-30T04:46:46.848Z,216
2016-08-30T04:47:47.468Z,224
2016-08-30T04:48:48.113Z,240
2016-08-30T04:49:48.727Z,248
2016-08-30T04:50:49.348Z,256
2016-08-30T04:51:49.986Z,264
2016-08-30T04:52:50.612Z,272
2016-08-30T04:53:51.227Z,292
2016-08-30T04:54:51.845Z,300
2016-08-30T04:55:52.478Z,304
2016-08-30T04:56:53.103Z,304
2016-08-30T04:57:53.738Z,316
2016-08-30T04:58:54.365Z,320
2016-08-30T04:59:54.996Z,324
2016-08-30T05:00:55.625Z,332
2016-08-30T05:01:56.251Z,340
2016-08-30T05:02:56.871Z,348
2016-08-30T05:03:57.490Z,356
2016-08-30T05:04:58.126Z,364
2016-08-30T05:05:58.757Z,376
2016-08-30T05:06:59.395Z,380
2016-08-30T05:08:00.026Z,388
2016-08-30T05:09:00.656Z,396
2016-08-30T05:10:01.288Z,404
2016-08-30T05:11:01.911Z,412
2016-08-30T05:12:02.547Z,420
2016-08-30T05:13:03.178Z,428
2016-08-30T05:14:03.805Z,436
2016-08-30T05:15:04.418Z,444
2016-08-30T05:16:05.036Z,452
2016-08-30T05:17:05.700Z,460
2016-08-30T05:18:06.318Z,468
2016-08-30T05:19:06.939Z,472
2016-08-30T05:20:07.802Z,484
2016-08-30T05:21:08.436Z,492
2016-08-30T05:22:09.082Z,500
2016-08-30T05:23:09.727Z,508
2016-08-30T05:24:10.345Z,512
2016-08-30T05:25:11.449Z,520
2016-08-30T05:26:12.106Z,528
2016-08-30T05:27:12.736Z,536
2016-08-30T05:28:13.357Z,540
2016-08-30T05:29:13.978Z,540
2016-08-30T05:30:14.600Z,512
2016-08-30T05:31:15.220Z,524
2016-08-30T05:32:15.869Z,544
2016-08-30T05:33:16.484Z,564
2016-08-30T05:34:17.112Z,568
2016-08-30T05:35:17.809Z,600
2016-08-30T05:36:18.469Z,620
2016-08-30T05:37:19.089Z,644
2016-08-30T05:38:19.719Z,676
2016-08-30T05:39:20.333Z,716
2016-08-30T05:40:20.956Z,760
2016-08-30T05:41:34.408Z,824
2016-08-30T05:42:35.519Z,908
2016-08-30T05:43:36.147Z,988
2016-08-30T05:44:36.825Z,1064
2016-08-30T05:45:41.292Z,1156
2016-08-30T05:46:41.283Z,1268
2016-08-30T05:47:41.938Z,1380
2016-08-30T05:48:42.566Z,1488
2016-08-30T05:49:43.204Z,1572
2016-08-30T05:50:43.835Z,1548
2016-08-30T05:51:44.498Z,1472
2016-08-30T05:52:45.130Z,1844
2016-08-30T05:58:12.011Z,2376
2016-08-30T05:59:13.042Z,2236
2016-08-30T06:00:22.111Z,2188
2016-08-30T06:01:37.732Z,2452
2016-08-30T06:02:38.505Z,2928
2016-08-30T06:03:38.949Z,2944
2016-08-30T06:04:39.657Z,2876
2016-08-30T06:05:40.618Z,2880
2016-08-30T06:06:41.785Z,2924
2016-08-30T06:07:42.437Z,2952
2016-08-30T06:08:43.704Z,2960
2016-08-30T06:09:46.731Z,3040
2016-08-30T06:10:53.359Z,3060
2016-08-30T06:11:53.973Z,3044
2016-08-30T06:12:54.618Z,3048
2016-08-30T06:13:55.252Z,3056
2016-08-30T06:14:55.986Z,3060
2016-08-30T06:15:58.440Z,3044
2016-08-30T06:16:59.086Z,3044
2016-08-30T06:17:59.738Z,3036
2016-08-30T06:19:00.472Z,3020
2016-08-30T06:20:01.092Z,2992
2016-08-30T06:21:07.662Z,2956
2016-08-30T06:22:08.500Z,2916
2016-08-30T06:23:08.953Z,2888
2016-08-30T06:24:09.575Z,2864
2016-08-30T06:25:10.219Z,2824
2016-08-30T06:26:10.847Z,2504
2016-08-30T06:27:11.475Z,2680
2016-08-30T06:28:12.110Z,2040
2016-08-30T06:29:12.741Z,2268
2016-08-30T06:30:13.357Z,2624
2016-08-30T06:31:13.974Z,2568
2016-08-30T06:32:14.600Z,2528
2016-08-30T06:33:15.224Z,2504
2016-08-30T06:34:15.867Z,2488
2016-08-30T06:35:16.537Z,2468
2016-08-30T06:36:17.171Z,2428
2016-08-30T06:37:17.798Z,2408
2016-08-30T06:38:18.439Z,2400
2016-08-30T06:39:19.079Z,2308
2016-08-30T06:40:19.997Z,2360
2016-08-30T06:41:20.627Z,2368
2016-08-30T06:42:21.266Z,2360
2016-08-30T06:43:21.888Z,2352
2016-08-30T06:44:22.523Z,2340
2016-08-30T06:45:23.142Z,2340
2016-08-30T06:46:23.770Z,2340
2016-08-30T06:47:24.406Z,2324
2016-08-30T06:48:25.036Z,2316
2016-08-30T06:49:25.676Z,2320
2016-08-30T06:50:26.329Z,2328
2016-08-30T06:51:27.027Z,2336
2016-08-30T06:52:27.669Z,2336
2016-08-30T06:53:28.292Z,2340
2016-08-30T06:54:28.944Z,2352
2016-08-30T06:55:29.567Z,2356
2016-08-30T06:56:30.206Z,2356
2016-08-30T06:57:30.840Z,2356
2016-08-30T06:58:31.474Z,2360
2016-08-30T06:59:32.103Z,2376
2016-08-30T07:00:32.761Z,2380
2016-08-30T07:01:33.386Z,2392
2016-08-30T07:02:34.010Z,2400
2016-08-30T07:03:34.634Z,2400
2016-08-30T07:04:35.266Z,2416
2016-08-30T07:05:35.902Z,2428
2016-08-30T07:06:36.586Z,2448
2016-08-30T07:07:37.217Z,2460
2016-08-30T07:08:37.839Z,2472
2016-08-30T07:09:38.467Z,2484
2016-08-30T07:10:39.112Z,2492
2016-08-30T07:11:39.740Z,2508
2016-08-30T07:12:40.363Z,2512
2016-08-30T07:13:40.984Z,2516
2016-08-30T07:14:41.610Z,2520
2016-08-30T07:15:42.251Z,2516
2016-08-30T07:16:42.886Z,2516
2016-08-30T07:17:43.535Z,2524
2016-08-30T07:18:44.165Z,2520
2016-08-30T07:19:44.862Z,2516
2016-08-30T07:20:46.547Z,2508
2016-08-30T07:21:47.188Z,2500
2016-08-30T07:22:47.838Z,2508
2016-08-30T07:23:48.540Z,2516
2016-08-30T07:24:49.214Z,2516
2016-08-30T07:25:49.862Z,2524
2016-08-30T07:26:50.506Z,2528
2016-08-30T07:27:51.133Z,2532
2016-08-30T07:28:51.764Z,2532
2016-08-30T07:29:52.387Z,2532
2016-08-30T07:30:53.020Z,2544
2016-08-30T07:31:53.664Z,2540
2016-08-30T07:32:54.298Z,2536
2016-08-30T07:33:54.907Z,2552
2016-08-30T07:34:55.565Z,2552
2016-08-30T07:35:57.885Z,2548
2016-08-30T07:36:58.504Z,2552
2016-08-30T07:37:59.141Z,2552
2016-08-30T07:38:59.776Z,2556
2016-08-30T07:40:00.424Z,2544
2016-08-30T07:41:01.660Z,2548
2016-08-30T07:42:02.294Z,2536
2016-08-30T07:43:02.929Z,2544
2016-08-30T07:44:03.552Z,2548
2016-08-30T07:45:04.190Z,2548
2016-08-30T07:46:04.807Z,2532
2016-08-30T07:47:05.458Z,2544
2016-08-30T07:48:06.090Z,2548
2016-08-30T07:49:06.719Z,2556
2016-08-30T07:50:07.347Z,2556
2016-08-30T07:51:07.968Z,2564
2016-08-30T07:52:08.619Z,2568
2016-08-30T07:53:09.242Z,2564
2016-08-30T07:54:09.873Z,2560
2016-08-30T07:55:10.624Z,2556
2016-08-30T07:56:11.255Z,2548
2016-08-30T07:57:11.925Z,2552
2016-08-30T07:58:12.558Z,2576
2016-08-30T07:59:13.174Z,2700
2016-08-30T08:00:14.755Z,2784
2016-08-30T08:01:15.377Z,2800
2016-08-30T08:02:16.061Z,2704
2016-08-30T08:03:16.684Z,2288
2016-08-30T08:04:17.325Z,1164
2016-08-30T08:05:18.002Z,2624
2016-08-30T08:06:18.636Z,2212
2016-08-30T08:07:19.298Z,1408
2016-08-30T08:08:19.986Z,2524
2016-08-30T08:09:20.642Z,1720
2016-08-30T08:10:21.512Z,2628
2016-08-30T08:11:22.149Z,2548
2016-08-30T08:12:22.810Z,2512
2016-08-30T08:13:23.475Z,2492
2016-08-30T08:14:24.094Z,2448
2016-08-30T08:15:25.027Z,2412
2016-08-30T08:16:25.732Z,2464
2016-08-30T08:17:26.374Z,2508
2016-08-30T08:18:27.027Z,2604
2016-08-30T08:19:27.674Z,2732
2016-08-30T08:20:28.298Z,2640
2016-08-30T08:21:28.939Z,2800
2016-08-30T08:22:29.564Z,2420
2016-08-30T08:23:30.188Z,2360
2016-08-30T08:24:30.811Z,2340
2016-08-30T08:25:32.001Z,2376
2016-08-30T08:26:32.632Z,2352
2016-08-30T08:27:33.255Z,2972
2016-08-30T08:28:33.883Z,2884
2016-08-30T08:29:34.511Z,2868
2016-08-30T08:30:35.144Z,3072
2016-08-30T08:31:35.781Z,2776
2016-08-30T08:32:36.404Z,2656
2016-08-30T08:33:37.026Z,2800
2016-08-30T08:34:37.665Z,3100
2016-08-30T08:35:38.315Z,2788
2016-08-30T08:36:38.961Z,2492
2016-08-30T08:37:39.583Z,1452
2016-08-30T08:38:40.207Z,3000
2016-08-30T08:39:40.856Z,2028
2016-08-30T08:40:43.473Z,2684
2016-08-30T08:42:18.818Z,4000
2016-08-30T08:43:19.462Z,4004
2016-08-30T08:44:20.445Z,3916
2016-08-30T08:45:30.967Z,4168
2016-08-30T08:46:30.542Z,3068
2016-08-30T08:47:31.191Z,2592
2016-08-30T08:48:31.936Z,3656
2016-08-30T08:49:32.584Z,2524
2016-08-30T08:50:33.227Z,2436
2016-08-30T08:51:33.897Z,3620
2016-08-30T08:52:34.653Z,3028
2016-08-30T08:53:35.341Z,3832
2016-08-30T08:54:35.971Z,3760
2016-08-30T08:55:36.861Z,3412
2016-08-30T08:56:37.495Z,2984
2016-08-30T08:57:38.133Z,2964
2016-08-30T08:58:38.764Z,4040
2016-08-30T08:59:39.519Z,3512
2016-08-30T09:00:40.675Z,2784
2016-08-30T09:01:41.305Z,2460
2016-08-30T09:02:41.966Z,2012
2016-08-30T09:03:42.603Z,2272
2016-08-30T09:04:43.258Z,2328
2016-08-30T09:05:44.488Z,1928
2016-08-30T09:06:45.161Z,2192
2016-08-30T09:07:45.787Z,2356
2016-08-30T09:08:46.431Z,2572
2016-08-30T09:09:47.070Z,2936
2016-08-30T09:10:47.750Z,3080
2016-08-30T09:11:48.396Z,3416
2016-08-30T09:12:49.029Z,2292
2016-08-30T09:13:49.652Z,1980
2016-08-30T09:14:50.286Z,1836
2016-08-30T09:15:50.910Z,2292
2016-08-30T09:16:51.545Z,2216
2016-08-30T09:17:52.204Z,2496
2016-08-30T09:18:52.818Z,2876
2016-08-30T09:19:53.451Z,3136
2016-08-30T09:20:54.082Z,2960
2016-08-30T09:21:54.758Z,2588
2016-08-30T09:22:55.396Z,2200
2016-08-30T09:23:56.037Z,1560
2016-08-30T09:24:56.659Z,1316
2016-08-30T09:25:57.279Z,1272
2016-08-30T09:26:57.973Z,1384
2016-08-30T09:27:58.606Z,2004
2016-08-30T09:28:59.247Z,2564
2016-08-30T09:29:59.900Z,2864
2016-08-30T09:31:00.531Z,2388
2016-08-30T09:32:01.175Z,1948
2016-08-30T09:33:01.814Z,2020
2016-08-30T09:34:02.471Z,1864
2016-08-30T09:35:03.455Z,1600
2016-08-30T09:36:04.100Z,2060
2016-08-30T09:37:04.741Z,2016
2016-08-30T09:38:05.380Z,2228
2016-08-30T09:39:06.013Z,2008
2016-08-30T09:40:06.643Z,1816
2016-08-30T09:41:07.272Z,1812
2016-08-30T09:42:07.908Z,2112
2016-08-30T09:43:08.549Z,2568
2016-08-30T09:44:09.178Z,2752
2016-08-30T09:45:09.864Z,1964
2016-08-30T09:46:10.507Z,1512
2016-08-30T09:47:11.143Z,1752
2016-08-30T09:48:11.776Z,1876
2016-08-30T09:49:12.470Z,2532
2016-08-30T09:50:13.097Z,2812
2016-08-30T09:51:13.718Z,3060
2016-08-30T09:52:14.349Z,3028
2016-08-30T09:53:14.981Z,3108
2016-08-30T09:54:15.605Z,3408
2016-08-30T09:55:16.247Z,3100
2016-08-30T09:56:16.872Z,2160
2016-08-30T09:57:17.527Z,1472
2016-08-30T09:58:18.179Z,1624
2016-08-30T09:59:18.814Z,1960
2016-08-30T10:00:19.452Z,1548
2016-08-30T10:01:20.083Z,1728
2016-08-30T10:02:20.708Z,2096
2016-08-30T10:03:21.365Z,2736
2016-08-30T10:04:22.024Z,2520
2016-08-30T10:05:22.719Z,2316
2016-08-30T10:06:23.367Z,2588
2016-08-30T10:07:24.011Z,2260
2016-08-30T10:08:24.635Z,1904
2016-08-30T10:09:25.255Z,2448
2016-08-30T10:10:25.906Z,2308
2016-08-30T10:11:26.530Z,2468
2016-08-30T10:12:27.167Z,2616
2016-08-30T10:13:27.792Z,2888
2016-08-30T10:14:28.424Z,3032
2016-08-30T10:15:29.093Z,3208
2016-08-30T10:16:29.722Z,2856
2016-08-30T10:17:30.357Z,2764
2016-08-30T10:18:31.000Z,2908
2016-08-30T10:19:31.624Z,2540
2016-08-30T10:20:32.313Z,2644
2016-08-30T10:21:32.947Z,1912
2016-08-30T10:22:33.577Z,1532
2016-08-30T10:23:34.229Z,1828
2016-08-30T10:24:34.871Z,2368
2016-08-30T10:25:35.505Z,2724
2016-08-30T10:26:36.142Z,3304
2016-08-30T10:27:36.780Z,3176
2016-08-30T10:28:37.410Z,2884
2016-08-30T10:29:38.044Z,3048
2016-08-30T10:30:38.677Z,3620
2016-08-30T10:31:39.301Z,3524
2016-08-30T10:32:39.945Z,2956
2016-08-30T10:33:40.574Z,2480
2016-08-30T10:34:41.228Z,2344
2016-08-30T10:35:41.865Z,2440
2016-08-30T10:36:42.510Z,2076
2016-08-30T10:37:43.144Z,2356
2016-08-30T10:38:43.772Z,2168
2016-08-30T10:39:44.399Z,1876
2016-08-30T10:40:45.027Z,1832
2016-08-30T10:41:45.656Z,1636
2016-08-30T10:42:46.278Z,1692
2016-08-30T10:43:46.932Z,2056
2016-08-30T10:44:47.586Z,2700
2016-08-30T10:45:48.215Z,3144
2016-08-30T10:46:48.843Z,3128
2016-08-30T10:47:49.484Z,2792
2016-08-30T10:48:50.127Z,2504
2016-08-30T10:49:50.761Z,1944
2016-08-30T10:50:51.455Z,1964
2016-08-30T10:51:52.085Z,2040
2016-08-30T10:52:52.727Z,1676
2016-08-30T10:53:53.349Z,1636
2016-08-30T10:54:53.979Z,1400
2016-08-30T10:55:54.614Z,1632
2016-08-30T10:56:55.276Z,1628
2016-08-30T10:57:55.909Z,1584
2016-08-30T10:58:56.560Z,1488
2016-08-30T10:59:57.208Z,1388
2016-08-30T11:00:57.861Z,1668
2016-08-30T11:01:58.504Z,2020
2016-08-30T11:02:59.165Z,1956
2016-08-30T11:03:59.785Z,1688
2016-08-30T11:05:00.408Z,1332
2016-08-30T11:06:01.027Z,1496
2016-08-30T11:07:01.646Z,1676
2016-08-30T11:08:02.279Z,1708
2016-08-30T11:09:02.908Z,1584
2016-08-30T11:10:03.543Z,1436
2016-08-30T11:11:04.237Z,1316
2016-08-30T11:12:04.884Z,1256
2016-08-30T11:13:05.515Z,1272
2016-08-30T11:14:06.145Z,1324
2016-08-30T11:15:07.130Z,1452
2016-08-30T11:16:07.759Z,1584
2016-08-30T11:17:08.411Z,1592
2016-08-30T11:18:09.042Z,1640
2016-08-30T11:19:09.666Z,1600
2016-08-30T11:20:10.302Z,1588
2016-08-30T11:21:10.936Z,1572
2016-08-30T11:22:11.578Z,1424
2016-08-30T11:23:12.208Z,1164
2016-08-30T11:24:12.858Z,1476
2016-08-30T11:25:13.659Z,1992
2016-08-30T11:26:14.131Z,2416
2016-08-30T11:27:14.788Z,2652
2016-08-30T11:28:15.439Z,2212
2016-08-30T11:29:16.074Z,2132
2016-08-30T11:30:16.708Z,1912
2016-08-30T11:31:17.337Z,1776
2016-08-30T11:32:17.979Z,1896
2016-08-30T11:33:18.646Z,2004
2016-08-30T11:34:19.271Z,2056
2016-08-30T11:35:19.900Z,1936
2016-08-30T11:36:20.521Z,1928
2016-08-30T11:37:21.169Z,2168
2016-08-30T11:38:21.802Z,2856
2016-08-30T11:39:22.428Z,3284
2016-08-30T11:40:23.066Z,3328
2016-08-30T11:41:23.698Z,3108
2016-08-30T11:42:24.313Z,2768
2016-08-30T11:43:24.951Z,2088
2016-08-30T11:44:25.588Z,2056
2016-08-30T11:45:26.209Z,2252
2016-08-30T11:46:26.864Z,2044
2016-08-30T11:47:27.501Z,1948
2016-08-30T11:48:28.123Z,1804
2016-08-30T11:49:28.777Z,1876
2016-08-30T11:50:29.530Z,2116
2016-08-30T11:51:30.169Z,2280
2016-08-30T11:52:30.789Z,2476
2016-08-30T11:53:31.431Z,2504
2016-08-30T11:54:32.070Z,1960
2016-08-30T11:55:32.698Z,1636
2016-08-30T11:56:33.333Z,1880
2016-08-30T11:57:33.964Z,1744
2016-08-30T11:58:34.582Z,1608
2016-08-30T11:59:35.209Z,1668
2016-08-30T12:00:35.828Z,1640
2016-08-30T12:01:36.476Z,1596
2016-08-30T12:02:37.105Z,1804
2016-08-30T12:03:37.739Z,2012
2016-08-30T12:04:38.364Z,2480
2016-08-30T12:05:38.993Z,2624
2016-08-30T12:06:39.625Z,2508
2016-08-30T12:07:40.277Z,2212
2016-08-30T12:08:40.917Z,1888
2016-08-30T12:09:41.555Z,1520
2016-08-30T12:10:42.190Z,1220
2016-08-30T12:11:42.821Z,1008
2016-08-30T12:12:43.438Z,964
2016-08-30T12:13:44.064Z,988
2016-08-30T12:14:44.700Z,1012
2016-08-30T12:15:45.398Z,1108
2016-08-30T12:16:46.020Z,1272
2016-08-30T12:17:46.638Z,1508
2016-08-30T12:18:47.261Z,1860
2016-08-30T12:19:47.883Z,2096
2016-08-30T12:20:48.505Z,1992
2016-08-30T12:21:49.142Z,2100
2016-08-30T12:22:49.772Z,2336
2016-08-30T12:23:50.405Z,2616
2016-08-30T12:24:51.084Z,2460
2016-08-30T12:25:51.740Z,2156
2016-08-30T12:26:52.381Z,2056
2016-08-30T12:27:53.011Z,1788
2016-08-30T12:28:53.648Z,1460
2016-08-30T12:29:54.288Z,1416
2016-08-30T12:30:54.934Z,1500
2016-08-30T12:31:55.562Z,1828
2016-08-30T12:32:56.185Z,2032
2016-08-30T12:33:56.823Z,1964
2016-08-30T12:34:57.451Z,1904
2016-08-30T12:35:58.107Z,1912
2016-08-30T12:36:58.734Z,2248
2016-08-30T12:37:59.365Z,2536
2016-08-30T12:38:59.987Z,2760
2016-08-30T12:40:00.621Z,2436
2016-08-30T12:41:01.250Z,2272
2016-08-30T12:42:01.879Z,1920
2016-08-30T12:43:02.510Z,1556
2016-08-30T12:44:03.133Z,1316
2016-08-30T12:45:03.753Z,1460
2016-08-30T12:46:04.380Z,1768
2016-08-30T12:47:05.004Z,2376
2016-08-30T12:48:05.853Z,2688
2016-08-30T12:49:06.482Z,3224
2016-08-30T12:50:07.383Z,3468
2016-08-30T12:51:08.014Z,3480
2016-08-30T12:52:08.652Z,3124
2016-08-30T12:53:09.296Z,3348
2016-08-30T12:54:09.942Z,3616
2016-08-30T12:55:10.586Z,3492
2016-08-30T12:56:11.221Z,3140
2016-08-30T12:57:11.860Z,3036
2016-08-30T12:58:12.495Z,3312
2016-08-30T12:59:13.146Z,3304
2016-08-30T13:00:13.776Z,3132
2016-08-30T13:01:14.420Z,3308
2016-08-30T13:02:15.060Z,3036
2016-08-30T13:03:15.709Z,2744
2016-08-30T13:04:16.324Z,2704
2016-08-30T13:05:17.300Z,2816
2016-08-30T13:06:17.925Z,2684
2016-08-30T13:07:18.560Z,2676
2016-08-30T13:08:19.184Z,2576
2016-08-30T13:09:19.839Z,2312
2016-08-30T13:10:20.499Z,2072
2016-08-30T13:11:21.142Z,1816
2016-08-30T13:12:21.800Z,1760
2016-08-30T13:13:22.453Z,1788
2016-08-30T13:14:23.087Z,1880
2016-08-30T13:15:23.893Z,1972
2016-08-30T13:16:24.531Z,2100
2016-08-30T13:17:25.163Z,2172
2016-08-30T13:18:25.801Z,2304
2016-08-30T13:19:26.451Z,2436
2016-08-30T13:20:27.073Z,2360
2016-08-30T13:21:27.702Z,2276
2016-08-30T13:22:28.321Z,2300
2016-08-30T13:23:28.940Z,2300
2016-08-30T13:24:29.588Z,2232
2016-08-30T13:25:30.367Z,2232
2016-08-30T13:26:31.009Z,2464
2016-08-30T13:27:31.629Z,2540
2016-08-30T13:28:32.263Z,2708
2016-08-30T13:29:32.903Z,2944
2016-08-30T13:30:33.576Z,3124
2016-08-30T13:31:34.240Z,3232
2016-08-30T13:32:34.882Z,3292
2016-08-30T13:33:35.520Z,3332
2016-08-30T13:34:36.167Z,2996
2016-08-30T13:35:36.827Z,2516
2016-08-30T13:36:37.458Z,2164
2016-08-30T13:37:38.088Z,2052
2016-08-30T13:38:38.731Z,2068
2016-08-30T13:39:39.365Z,2144
2016-08-30T13:40:39.997Z,2272
2016-08-30T13:41:40.647Z,2184
2016-08-30T13:42:41.280Z,2268
2016-08-30T13:43:41.919Z,2348
2016-08-30T13:44:42.548Z,2576
2016-08-30T13:45:43.193Z,2832
2016-08-30T13:46:43.823Z,3104
2016-08-30T13:47:44.470Z,3128
2016-08-30T13:48:45.101Z,3088
2016-08-30T13:49:45.796Z,2740
2016-08-30T13:50:46.434Z,1988
2016-08-30T13:51:47.063Z,1348
2016-08-30T13:52:47.711Z,1152
2016-08-30T13:53:48.350Z,1200
2016-08-30T13:54:48.985Z,1180
2016-08-30T13:55:49.648Z,1128
2016-08-30T13:56:50.283Z,1108
2016-08-30T13:57:50.916Z,1116
2016-08-30T13:58:51.678Z,1180
2016-08-30T13:59:52.360Z,1212
2016-08-30T14:00:53.010Z,1168
2016-08-30T14:01:53.641Z,1256
2016-08-30T14:02:54.263Z,1320